Pagrindinis puslapis
METAR-TAF:

METAR-TAF

Oro uostai :

Dibrugarh, Indija

platuma: 27-29N, ilguma: 095-01E, Aukštis: 110 m

Dabartinis oras

Ataskaita buvo paskelbta 36 minutes, ne 07:00 UTC
Vėjas 3 kt iš Rytų
Temperatūra 21°C
Drėgmė 49%
Slėgis 1015 hPa
Matomumas: 5000 m
Mažai debesys ne aukštis 2000 ft
migla

METAR: VEMN 250700Z 09003KT 5000 HZ FEW020 21/10 Q1015 NOSIG

Laikas: 13:06 (07:36 UTC)

Prognozė

Ataskaita buvo paskelbta 2 valandos ir 36 minutes, ne 05:00 UTC
Prognozė galioja nuo 25 metu 06 UTC su 25 metu 15 UTC
Vėjas 5 kt iš Šiaurės/Šiaurės Rytų
Matomumas: 5000 m
Mažai debesys ne aukštis 2000 ft
migla
Tapsmas
nuo 25 metu 12 UTC su 25 metu 15 UTC
Vėjas kt iš Šiaurės
Matomumas: 3000 m
Mažai debesys ne aukštis 10000 ft
rūkana

TAF: VEMN 250500Z 2506/2515 02005KT 5000 HZ FEW020 BECMG 2512/2515 00000KT 3000 BR FEW100

Orai ataskaitas ir orų prognozės (METAR, TAF).

turimą stotys yra geltonos ir raudonos taškus žemėlapyje.

Perkelti pele per norėdami pamatyti stoties vardą.

Tada spustelėkite, norėdami matyti oro stebėjimo ir prognozės.

Norėdami pakeisti žemėlapį: spustelėkite ant žalios mygtukų su juodo kryžiaus žemyn,; žalią mygtuką su brūkšneliu, jei norite nutolinti; arba žalių rodyklių gretimoms žemėlapius.


METAR-TAF: